createdAt,value
2019-05-19T00:01:53.875Z,13.28
2019-05-19T00:04:24.003Z,13.25
2019-05-19T00:06:55.526Z,13.22
2019-05-19T00:09:25.786Z,13.19
2019-05-19T00:11:56.852Z,13.17
2019-05-19T00:14:27.130Z,13.13
2019-05-19T00:16:58.338Z,13.12
2019-05-19T00:19:28.570Z,13.11
2019-05-19T00:21:58.734Z,13.05
2019-05-19T00:24:28.894Z,13.05
2019-05-19T00:27:00.162Z,13.02
2019-05-19T00:29:30.315Z,13.01
2019-05-19T00:32:00.466Z,12.99
2019-05-19T00:34:30.767Z,12.96
2019-05-19T00:37:00.983Z,12.96
2019-05-19T00:39:31.321Z,12.94
2019-05-19T00:42:01.432Z,12.88
2019-05-19T00:44:31.578Z,12.87
2019-05-19T00:47:01.707Z,12.81
2019-05-19T00:49:41.046Z,12.80
2019-05-19T00:52:03.917Z,12.68
2019-05-19T00:54:34.071Z,12.73
2019-05-19T00:57:04.820Z,12.72
2019-05-19T00:59:35.718Z,12.70
2019-05-19T01:02:05.896Z,12.67
2019-05-19T01:04:36.049Z,12.62
2019-05-19T01:07:06.280Z,12.60
2019-05-19T01:09:36.521Z,12.61
2019-05-19T01:12:06.680Z,12.59
2019-05-19T01:14:36.826Z,12.54
2019-05-19T01:17:06.941Z,12.48
2019-05-19T01:19:37.216Z,12.44
2019-05-19T01:22:08.329Z,12.42
2019-05-19T01:24:38.491Z,12.39
2019-05-19T01:27:08.597Z,12.29
2019-05-19T01:29:38.769Z,12.33
2019-05-19T01:32:08.953Z,12.29
2019-05-19T01:34:39.113Z,12.21
2019-05-19T01:37:09.327Z,12.23
2019-05-19T01:39:39.564Z,12.22
2019-05-19T01:42:09.739Z,12.22
2019-05-19T01:44:39.869Z,12.16
2019-05-19T01:47:09.991Z,12.12
2019-05-19T01:49:40.130Z,12.10
2019-05-19T01:52:10.356Z,12.06
2019-05-19T01:54:40.457Z,12.06
2019-05-19T01:57:10.607Z,11.99
2019-05-19T01:59:40.765Z,11.83
2019-05-19T02:02:10.915Z,11.81
2019-05-19T02:04:41.067Z,11.91
2019-05-19T02:07:12.303Z,11.95
2019-05-19T02:09:42.517Z,11.97
2019-05-19T02:12:12.871Z,11.96
2019-05-19T02:14:42.996Z,11.94
2019-05-19T02:17:14.215Z,11.90
2019-05-19T02:19:44.338Z,11.81
2019-05-19T02:22:14.487Z,11.87
2019-05-19T02:24:44.604Z,11.83
2019-05-19T02:27:14.827Z,11.80
2019-05-19T02:29:45.197Z,11.78
2019-05-19T02:32:15.350Z,11.78
2019-05-19T02:34:45.468Z,11.77
2019-05-19T02:37:15.612Z,11.77
2019-05-19T02:39:45.710Z,11.78
2019-05-19T02:42:19.101Z,11.75
2019-05-19T02:44:50.658Z,11.75
2019-05-19T02:47:22.324Z,11.71
2019-05-19T02:49:54.914Z,11.72
2019-05-19T02:52:26.972Z,11.69
2019-05-19T02:54:58.944Z,11.65
2019-05-19T02:57:29.680Z,11.67
2019-05-19T03:00:01.194Z,11.61
2019-05-19T03:02:31.681Z,11.59
2019-05-19T03:05:02.001Z,11.55
2019-05-19T03:07:34.217Z,11.56
2019-05-19T03:10:04.039Z,11.58
2019-05-19T03:12:34.223Z,11.53
2019-05-19T03:15:04.598Z,11.59
2019-05-19T03:17:34.759Z,11.60
2019-05-19T03:20:05.007Z,11.59
2019-05-19T03:22:35.188Z,11.60
2019-05-19T03:25:05.823Z,11.59
2019-05-19T03:27:36.050Z,11.57
2019-05-19T03:30:24.233Z,11.60
2019-05-19T03:32:58.794Z,11.59
2019-05-19T03:35:28.936Z,11.61
2019-05-19T03:37:59.112Z,11.60
2019-05-19T03:40:29.380Z,11.63
2019-05-19T03:42:59.527Z,11.63
2019-05-19T03:45:29.723Z,11.63
2019-05-19T03:47:59.851Z,11.65
2019-05-19T03:50:30.610Z,11.65
2019-05-19T03:53:01.127Z,11.68
2019-05-19T03:55:31.227Z,11.69
2019-05-19T03:58:01.373Z,11.61
2019-05-19T04:00:31.510Z,11.63
2019-05-19T04:03:01.714Z,11.59
2019-05-19T04:05:31.826Z,11.57
2019-05-19T04:08:05.633Z,11.58
2019-05-19T04:10:34.401Z,11.62
2019-05-19T04:13:04.659Z,11.66
2019-05-19T04:15:34.968Z,11.70
2019-05-19T04:18:05.181Z,11.73
2019-05-19T04:20:35.472Z,11.75
2019-05-19T04:23:05.789Z,11.78
2019-05-19T04:25:35.995Z,11.85
2019-05-19T04:28:06.188Z,11.95
2019-05-19T04:30:36.384Z,12.03
2019-05-19T04:33:06.736Z,12.11
2019-05-19T04:35:36.983Z,12.17
2019-05-19T04:38:07.256Z,12.26
2019-05-19T04:40:37.560Z,12.33
2019-05-19T04:43:07.758Z,12.40
2019-05-19T04:45:38.021Z,12.46
2019-05-19T04:48:09.569Z,12.55
2019-05-19T04:50:40.156Z,12.62
2019-05-19T04:53:10.396Z,12.70
2019-05-19T04:55:40.581Z,12.80
2019-05-19T04:58:10.733Z,12.86
2019-05-19T05:00:40.913Z,12.93
2019-05-19T05:03:11.187Z,13.01
2019-05-19T05:05:41.381Z,13.09
2019-05-19T05:08:27.936Z,13.13
2019-05-19T05:10:43.315Z,13.17
2019-05-19T05:13:13.475Z,13.27
2019-05-19T05:15:48.060Z,13.36
2019-05-19T05:18:21.054Z,13.48
2019-05-19T05:20:51.225Z,13.58
2019-05-19T05:23:21.431Z,13.68
2019-05-19T05:25:51.690Z,13.72
2019-05-19T05:28:23.959Z,13.72
2019-05-19T05:30:55.906Z,13.74
2019-05-19T05:33:27.016Z,13.79
2019-05-19T05:35:57.250Z,13.80
2019-05-19T05:38:27.485Z,13.82
2019-05-19T05:40:57.661Z,13.86
2019-05-19T05:43:27.840Z,13.84
2019-05-19T05:46:00.378Z,13.84
2019-05-19T05:48:32.854Z,13.82
2019-05-19T05:51:04.613Z,13.85
2019-05-19T05:53:35.631Z,13.86
2019-05-19T05:56:05.839Z,13.84
2019-05-19T05:58:36.120Z,13.92
2019-05-19T06:01:06.307Z,13.98
2019-05-19T06:03:36.528Z,14.05
2019-05-19T06:06:06.935Z,14.16
2019-05-19T06:08:37.331Z,14.28
2019-05-19T06:11:09.924Z,14.31
2019-05-19T06:13:40.241Z,14.32
2019-05-19T06:16:12.195Z,14.26
2019-05-19T06:18:42.514Z,14.21
2019-05-19T06:21:14.291Z,14.24
2019-05-19T06:23:44.514Z,14.29
2019-05-19T06:26:14.841Z,14.33
2019-05-19T06:28:45.078Z,14.35
2019-05-19T06:31:15.443Z,14.37
2019-05-19T06:33:48.411Z,14.37
2019-05-19T06:36:18.595Z,14.41
2019-05-19T06:38:49.306Z,14.44
2019-05-19T06:41:21.078Z,14.55
2019-05-19T06:43:51.480Z,14.66
2019-05-19T06:46:21.758Z,14.78
2019-05-19T06:48:52.505Z,14.86
2019-05-19T06:51:22.681Z,14.99
2019-05-19T06:53:53.038Z,15.10
2019-05-19T06:56:23.289Z,15.20
2019-05-19T06:59:00.844Z,15.31
2019-05-19T07:01:31.102Z,15.38
2019-05-19T07:04:01.482Z,15.45
2019-05-19T07:06:34.182Z,15.57
2019-05-19T07:09:07.272Z,15.68
2019-05-19T07:11:40.368Z,15.82
2019-05-19T07:14:10.543Z,15.87
2019-05-19T07:16:41.928Z,15.98
2019-05-19T07:19:12.162Z,16.11
2019-05-19T07:21:42.336Z,16.22
2019-05-19T07:24:12.975Z,16.18
2019-05-19T07:26:44.313Z,16.26
2019-05-19T07:29:14.630Z,16.31
2019-05-19T07:31:46.139Z,16.34
2019-05-19T07:34:16.357Z,16.39
2019-05-19T07:36:46.598Z,16.43
2019-05-19T07:39:16.738Z,16.46
2019-05-19T07:41:49.879Z,16.44
2019-05-19T07:44:20.068Z,16.48
2019-05-19T07:46:51.887Z,16.50
2019-05-19T07:49:22.083Z,16.62
2019-05-19T07:51:55.276Z,16.77
2019-05-19T07:54:26.806Z,16.97
2019-05-19T07:56:56.979Z,17.07
2019-05-19T07:59:27.152Z,17.20
2019-05-19T08:01:57.284Z,17.36
2019-05-19T08:04:27.817Z,17.51
2019-05-19T08:07:00.351Z,17.56
2019-05-19T08:09:32.335Z,17.64
2019-05-19T08:12:03.145Z,17.76
2019-05-19T08:14:33.459Z,17.80
2019-05-19T08:17:03.919Z,17.95
2019-05-19T08:19:35.910Z,18.08
2019-05-19T08:22:06.251Z,18.09
2019-05-19T08:24:37.520Z,18.14
2019-05-19T08:27:07.687Z,18.26
2019-05-19T08:29:38.011Z,18.41
2019-05-19T08:32:08.266Z,18.47
2019-05-19T08:34:39.641Z,18.64
2019-05-19T08:37:10.026Z,18.82
2019-05-19T08:39:47.843Z,19.14
2019-05-19T08:42:18.059Z,19.20
2019-05-19T08:44:48.177Z,19.24
2019-05-19T08:47:20.999Z,19.27
2019-05-19T08:49:52.699Z,19.50
2019-05-19T08:52:22.951Z,19.75
2019-05-19T08:54:53.183Z,19.84
2019-05-19T08:57:25.689Z,19.98
2019-05-19T08:59:55.922Z,20.20
2019-05-19T09:02:26.215Z,20.29
2019-05-19T09:04:56.373Z,20.28
2019-05-19T09:07:26.654Z,20.35
2019-05-19T09:09:56.845Z,20.52
2019-05-19T09:12:27.008Z,20.55
2019-05-19T09:14:57.214Z,20.53
2019-05-19T09:17:27.431Z,20.57
2019-05-19T09:19:57.567Z,20.74
2019-05-19T09:22:29.429Z,20.90
2019-05-19T09:25:01.191Z,20.84
2019-05-19T09:27:31.413Z,20.95
2019-05-19T09:30:01.739Z,21.30
2019-05-19T09:32:32.301Z,21.53
2019-05-19T09:35:07.365Z,21.47
2019-05-19T09:37:40.919Z,21.47
2019-05-19T09:40:12.185Z,21.66
2019-05-19T09:42:42.362Z,21.68
2019-05-19T09:45:12.867Z,21.69
2019-05-19T09:47:43.415Z,21.83
2019-05-19T09:50:17.340Z,21.98
2019-05-19T09:52:50.071Z,21.63
2019-05-19T09:55:19.932Z,21.44
2019-05-19T09:57:53.231Z,21.55
2019-05-19T10:00:23.362Z,21.58
2019-05-19T10:02:53.835Z,22.14
2019-05-19T10:05:25.335Z,22.64
2019-05-19T10:07:55.530Z,23.09
2019-05-19T10:10:48.798Z,22.76
2019-05-19T10:13:19.037Z,22.54
2019-05-19T10:15:50.227Z,22.46
2019-05-19T10:18:27.877Z,22.61
2019-05-19T10:20:59.961Z,22.78
2019-05-19T10:23:30.386Z,22.57
2019-05-19T10:26:00.608Z,22.36
2019-05-19T10:28:30.814Z,22.23
2019-05-19T10:31:02.826Z,22.27
2019-05-19T10:33:35.677Z,22.34
2019-05-19T10:36:05.924Z,22.18
2019-05-19T10:38:36.230Z,22.14
2019-05-19T10:41:06.387Z,22.13
2019-05-19T10:43:36.773Z,21.92
2019-05-19T10:46:06.904Z,21.93
2019-05-19T10:48:37.922Z,21.94
2019-05-19T10:51:12.830Z,22.03
2019-05-19T10:53:45.093Z,22.02
2019-05-19T10:56:18.965Z,22.62
2019-05-19T10:58:48.391Z,23.04
2019-05-19T11:01:21.310Z,23.34
2019-05-19T11:03:59.691Z,23.66
2019-05-19T11:06:30.488Z,23.52
2019-05-19T11:09:00.890Z,23.49
2019-05-19T11:11:32.936Z,23.28
2019-05-19T11:14:03.365Z,23.29
2019-05-19T11:16:37.605Z,23.16
2019-05-19T11:19:07.842Z,23.22
2019-05-19T11:21:38.057Z,23.46
2019-05-19T11:24:08.184Z,23.51
2019-05-19T11:26:38.396Z,23.20
2019-05-19T11:29:09.001Z,22.98
2019-05-19T11:31:39.500Z,23.03
2019-05-19T11:34:11.296Z,23.20
2019-05-19T11:36:48.513Z,23.20
2019-05-19T11:39:18.769Z,23.16
2019-05-19T11:41:49.016Z,23.11
2019-05-19T11:44:19.458Z,23.40
2019-05-19T11:46:49.642Z,23.62
2019-05-19T11:49:29.123Z,23.75
2019-05-19T11:52:03.199Z,23.46
2019-05-19T11:54:33.354Z,23.32
2019-05-19T11:57:03.662Z,23.41
2019-05-19T11:59:33.930Z,23.49
2019-05-19T12:02:06.117Z,23.78
2019-05-19T12:04:40.829Z,23.71
2019-05-19T12:07:11.986Z,23.91
2019-05-19T12:09:42.202Z,23.48
2019-05-19T12:12:12.448Z,23.42
2019-05-19T12:14:44.283Z,23.53
2019-05-19T12:17:17.277Z,23.56
2019-05-19T12:19:48.694Z,23.68
2019-05-19T12:22:19.682Z,23.71
2019-05-19T12:24:50.004Z,23.75
2019-05-19T12:27:20.269Z,23.88
2019-05-19T12:29:50.660Z,24.07
2019-05-19T12:32:23.389Z,23.99
2019-05-19T12:34:58.519Z,23.96
2019-05-19T12:37:31.665Z,23.86
2019-05-19T12:40:03.621Z,23.98
2019-05-19T12:42:35.375Z,24.00
2019-05-19T12:45:08.355Z,24.06
2019-05-19T12:47:48.233Z,24.04
2019-05-19T12:50:27.293Z,23.86
2019-05-19T12:53:10.530Z,23.76
2019-05-19T12:55:44.050Z,23.95
2019-05-19T12:58:14.438Z,24.24
2019-05-19T13:00:44.839Z,24.29
2019-05-19T13:03:16.576Z,24.36
2019-05-19T13:05:51.694Z,24.75
2019-05-19T13:08:26.350Z,24.94
2019-05-19T13:11:06.431Z,24.94
2019-05-19T13:13:37.883Z,24.95
2019-05-19T13:16:08.243Z,25.07
2019-05-19T13:18:39.811Z,24.88
2019-05-19T13:21:11.618Z,24.88
2019-05-19T13:23:48.752Z,24.63
2019-05-19T13:26:19.041Z,24.49
2019-05-19T13:28:49.601Z,24.31
2019-05-19T13:31:19.935Z,24.24
2019-05-19T13:33:50.078Z,24.33
2019-05-19T13:36:22.809Z,24.23
2019-05-19T13:38:56.587Z,24.30
2019-05-19T13:41:26.708Z,24.38
2019-05-19T13:43:59.539Z,24.64
2019-05-19T13:46:28.697Z,24.89
2019-05-19T13:48:58.846Z,25.07
2019-05-19T13:51:28.999Z,25.30
2019-05-19T13:54:00.026Z,25.48
2019-05-19T13:56:33.543Z,25.60
2019-05-19T13:59:03.985Z,25.60
2019-05-19T14:01:34.256Z,25.84
2019-05-19T14:04:05.941Z,26.21
2019-05-19T14:06:39.042Z,26.05
2019-05-19T14:09:09.540Z,26.34
2019-05-19T14:11:40.223Z,26.24
2019-05-19T14:14:10.404Z,26.22
2019-05-19T14:16:40.622Z,26.36
2019-05-19T14:19:12.259Z,26.26
2019-05-19T14:21:44.541Z,26.22
2019-05-19T14:24:17.614Z,26.41
2019-05-19T14:26:50.838Z,26.87
2019-05-19T14:29:21.215Z,27.21
2019-05-19T14:31:51.418Z,27.53
2019-05-19T14:34:21.752Z,27.68
2019-05-19T14:36:54.007Z,27.76
2019-05-19T14:39:24.781Z,27.69
2019-05-19T14:41:59.140Z,27.82
2019-05-19T14:44:33.596Z,27.77
2019-05-19T14:47:03.747Z,27.54
2019-05-19T14:49:33.993Z,27.53
2019-05-19T14:52:04.680Z,27.59
2019-05-19T14:54:36.385Z,27.77
2019-05-19T14:57:06.583Z,27.49
2019-05-19T14:59:36.935Z,27.16
2019-05-19T15:02:07.094Z,27.23
2019-05-19T15:04:37.169Z,27.18
2019-05-19T15:07:07.949Z,27.34
2019-05-19T15:09:38.057Z,27.29
2019-05-19T15:12:08.185Z,27.25
2019-05-19T15:14:38.309Z,27.08
2019-05-19T15:17:08.411Z,27.20
2019-05-19T15:19:38.668Z,27.13
2019-05-19T15:22:08.809Z,26.86
2019-05-19T15:24:38.967Z,26.75
2019-05-19T15:27:10.068Z,26.70
2019-05-19T15:29:40.214Z,27.11
2019-05-19T15:32:13.767Z,27.27
2019-05-19T15:34:51.283Z,27.74
2019-05-19T15:37:21.183Z,27.85
2019-05-19T15:39:51.448Z,27.92
2019-05-19T15:42:25.183Z,28.70
2019-05-19T15:45:07.238Z,29.60
2019-05-19T15:47:37.813Z,30.40
2019-05-19T15:50:08.374Z,30.98
2019-05-19T15:52:42.470Z,30.52
2019-05-19T15:55:15.830Z,29.86
2019-05-19T15:57:48.633Z,29.39
2019-05-19T16:00:20.316Z,29.04
2019-05-19T16:02:50.490Z,28.81
2019-05-19T16:05:20.577Z,28.60
2019-05-19T16:07:50.790Z,28.32
2019-05-19T16:10:20.999Z,27.91
2019-05-19T16:12:51.235Z,27.65
2019-05-19T16:15:22.123Z,27.39
2019-05-19T16:17:56.656Z,27.27
2019-05-19T16:20:26.773Z,27.08
2019-05-19T16:22:58.149Z,26.91
2019-05-19T16:25:29.755Z,26.77
2019-05-19T16:28:00.871Z,26.45
2019-05-19T16:30:31.281Z,26.06
2019-05-19T16:33:01.413Z,25.90
2019-05-19T16:35:31.739Z,25.77
2019-05-19T16:38:03.548Z,25.63
2019-05-19T16:40:33.833Z,25.59
2019-05-19T16:43:05.239Z,25.75
2019-05-19T16:45:35.387Z,25.85
2019-05-19T16:48:05.769Z,26.00
2019-05-19T16:50:37.434Z,26.00
2019-05-19T16:53:10.414Z,26.29
2019-05-19T16:55:41.706Z,26.32
2019-05-19T16:58:21.102Z,26.25
2019-05-19T17:00:44.321Z,26.19
2019-05-19T17:03:15.885Z,26.18
2019-05-19T17:05:45.990Z,26.10
2019-05-19T17:08:18.144Z,26.07
2019-05-19T17:10:55.664Z,26.08
2019-05-19T17:13:28.863Z,26.13
2019-05-19T17:16:02.002Z,26.01
2019-05-19T17:18:39.718Z,25.87
2019-05-19T17:21:10.322Z,26.06
2019-05-19T17:23:40.678Z,26.70
2019-05-19T17:26:17.399Z,27.39
2019-05-19T17:28:57.627Z,27.70
2019-05-19T17:31:16.850Z,27.24
2019-05-19T17:33:58.928Z,26.67
2019-05-19T17:36:29.392Z,26.20
2019-05-19T17:39:34.808Z,25.87
2019-05-19T17:42:20.932Z,25.62
2019-05-19T17:44:51.602Z,25.27
2019-05-19T17:47:22.041Z,24.84
2019-05-19T17:49:52.562Z,24.84
2019-05-19T17:52:22.783Z,24.68
2019-05-19T17:54:53.134Z,24.52
2019-05-19T17:57:42.185Z,24.33
2019-05-19T18:00:37.652Z,24.16
2019-05-19T18:03:12.562Z,23.98
2019-05-19T18:05:45.205Z,23.75
2019-05-19T18:08:23.210Z,23.56
2019-05-19T18:11:10.606Z,23.41
2019-05-19T18:17:58.575Z,23.14
2019-05-19T18:20:29.994Z,22.96
2019-05-19T18:26:44.847Z,22.79
2019-05-19T18:29:30.480Z,22.68
2019-05-19T18:31:50.005Z,22.51
2019-05-19T18:34:20.558Z,22.42
2019-05-19T18:36:50.905Z,22.36
2019-05-19T18:39:21.062Z,22.26
2019-05-19T18:41:51.557Z,22.15
2019-05-19T18:44:21.789Z,22.04
2019-05-19T18:46:57.758Z,21.93
2019-05-19T18:49:29.620Z,21.82
2019-05-19T18:52:03.313Z,21.72
2019-05-19T18:54:37.141Z,21.62
2019-05-19T18:57:08.686Z,21.49
2019-05-19T18:59:46.901Z,21.38
2019-05-19T19:02:25.186Z,21.27
2019-05-19T19:05:02.381Z,21.14
2019-05-19T19:08:20.694Z,21.03
2019-05-19T19:10:30.232Z,20.92
2019-05-19T19:13:00.677Z,20.79
2019-05-19T19:15:30.846Z,20.67
2019-05-19T19:18:01.163Z,20.59
2019-05-19T19:20:31.942Z,20.46
2019-05-19T19:23:02.899Z,20.36
2019-05-19T19:25:34.453Z,20.28
2019-05-19T19:28:04.745Z,20.18
2019-05-19T19:30:35.088Z,20.11
2019-05-19T19:33:12.871Z,20.02
2019-05-19T19:35:44.841Z,19.96
2019-05-19T19:38:15.077Z,19.82
2019-05-19T19:40:46.573Z,19.75
2019-05-19T19:43:16.975Z,19.68
2019-05-19T19:45:47.429Z,19.64
2019-05-19T19:48:17.811Z,19.59
2019-05-19T19:50:55.980Z,19.53
2019-05-19T19:53:26.386Z,19.47
2019-05-19T19:55:57.106Z,19.45
2019-05-19T19:58:27.629Z,19.44
2019-05-19T20:00:57.958Z,19.45
2019-05-19T20:03:31.647Z,19.45
2019-05-19T20:06:02.305Z,19.43
2019-05-19T20:08:35.443Z,19.39
2019-05-19T20:11:05.750Z,19.33
2019-05-19T20:13:35.942Z,19.27
2019-05-19T20:16:06.335Z,18.92
2019-05-19T20:18:36.566Z,19.01
2019-05-19T20:21:07.141Z,19.01
2019-05-19T20:23:37.602Z,19.05
2019-05-19T20:26:12.174Z,19.09
2019-05-19T20:28:47.393Z,19.12
2019-05-19T20:31:22.757Z,19.13
2019-05-19T20:33:53.050Z,19.13
2019-05-19T20:36:23.365Z,19.11
2019-05-19T20:38:53.577Z,19.05
2019-05-19T20:41:23.825Z,19.09
2019-05-19T20:43:54.090Z,19.06
2019-05-19T20:46:24.340Z,19.07
2019-05-19T20:48:54.950Z,18.99
2019-05-19T20:51:25.182Z,18.92
2019-05-19T20:53:55.472Z,18.95
2019-05-19T20:56:26.179Z,18.92
2019-05-19T20:58:56.380Z,18.87
2019-05-19T21:01:29.324Z,18.83
2019-05-19T21:04:00.610Z,18.78
2019-05-19T21:06:30.751Z,18.72
2019-05-19T21:09:00.894Z,18.66
2019-05-19T21:11:32.786Z,18.62
2019-05-19T21:14:02.998Z,18.59
2019-05-19T21:16:33.289Z,18.58
2019-05-19T21:19:05.840Z,18.50
2019-05-19T21:21:36.011Z,18.53
2019-05-19T21:24:06.230Z,18.50
2019-05-19T21:26:36.433Z,18.48
2019-05-19T21:29:07.478Z,18.58
2019-05-19T21:31:38.591Z,18.59
2019-05-19T21:34:08.859Z,18.57
2019-05-19T21:36:39.114Z,18.53
2019-05-19T21:39:09.500Z,18.46
2019-05-19T21:41:39.967Z,18.42
2019-05-19T21:44:10.335Z,18.32
2019-05-19T21:46:40.515Z,18.31
2019-05-19T21:49:10.726Z,18.22
2019-05-19T21:51:40.997Z,18.22
2019-05-19T21:54:12.316Z,18.18
2019-05-19T21:56:42.603Z,18.05
2019-05-19T21:59:12.811Z,18.03
2019-05-19T22:01:44.877Z,18.07
2019-05-19T22:04:15.168Z,18.03
2019-05-19T22:06:52.200Z,17.93
2019-05-19T22:12:04.775Z,17.96
2019-05-19T22:14:34.931Z,17.90
2019-05-19T22:17:10.879Z,17.77
2019-05-19T22:19:41.091Z,17.75
2019-05-19T22:22:11.209Z,17.71
2019-05-19T22:24:41.361Z,17.56
2019-05-19T22:27:11.519Z,17.61
2019-05-19T22:29:41.781Z,17.52
2019-05-19T22:32:12.005Z,17.52
2019-05-19T22:34:42.286Z,17.49
2019-05-19T22:37:12.411Z,17.44
2019-05-19T22:39:43.595Z,17.47
2019-05-19T22:42:13.755Z,17.40
2019-05-19T22:44:43.960Z,17.41
2019-05-19T22:47:14.099Z,17.36
2019-05-19T22:49:45.243Z,17.33
2019-05-19T22:52:15.467Z,17.27
2019-05-19T22:54:45.651Z,17.27
2019-05-19T22:57:17.980Z,17.20
2019-05-19T22:59:47.753Z,17.20
2019-05-19T23:02:17.873Z,17.11
2019-05-19T23:04:48.032Z,17.10
2019-05-19T23:07:18.233Z,17.09
2019-05-19T23:09:48.537Z,17.13
2019-05-19T23:12:21.509Z,17.07
2019-05-19T23:14:51.711Z,17.02
2019-05-19T23:17:21.905Z,17.01
2019-05-19T23:19:52.073Z,16.98
2019-05-19T23:22:22.235Z,16.95
2019-05-19T23:24:52.624Z,16.94
2019-05-19T23:27:22.792Z,16.94
2019-05-19T23:29:52.945Z,16.90
2019-05-19T23:32:26.013Z,16.85
2019-05-19T23:34:56.117Z,16.83
2019-05-19T23:37:27.733Z,16.83
2019-05-19T23:39:57.875Z,16.78
2019-05-19T23:42:27.999Z,16.79
2019-05-19T23:44:58.261Z,16.73
2019-05-19T23:47:28.413Z,16.70
2019-05-19T23:49:58.736Z,16.64
2019-05-19T23:52:28.867Z,16.63
2019-05-19T23:54:59.060Z,16.58
2019-05-19T23:57:29.234Z,16.52
2019-05-19T23:59:59.410Z,16.50
